sensor_id;sensor_type;location;lat;lon;timestamp;P1;durP1;ratioP1;P2;durP2;ratioP2
60488;SDS011;46331;49.252;8.904;2023-04-15T00:00:07;6.90;;;1.98;;
60488;SDS011;46331;49.252;8.904;2023-04-15T00:00:59;6.97;;;2.10;;
60488;SDS011;46331;49.252;8.904;2023-04-15T00:01:40;5.73;;;1.80;;
60488;SDS011;46331;49.252;8.904;2023-04-15T00:02:21;7.93;;;1.67;;
60488;SDS011;46331;49.252;8.904;2023-04-15T00:03:02;4.97;;;1.90;;
60488;SDS011;46331;49.252;8.904;2023-04-15T00:03:43;6.82;;;2.08;;
60488;SDS011;46331;49.252;8.904;2023-04-15T00:04:23;5.40;;;1.83;;
60488;SDS011;46331;49.252;8.904;2023-04-15T00:05:04;4.80;;;1.73;;
60488;SDS011;46331;49.252;8.904;2023-04-15T00:05:45;4.82;;;1.80;;
60488;SDS011;46331;49.252;8.904;2023-04-15T00:06:26;7.43;;;2.00;;
60488;SDS011;46331;49.252;8.904;2023-04-15T00:07:06;5.07;;;1.50;;
60488;SDS011;46331;49.252;8.904;2023-04-15T00:07:47;5.55;;;1.80;;
60488;SDS011;46331;49.252;8.904;2023-04-15T00:08:28;7.30;;;1.67;;
60488;SDS011;46331;49.252;8.904;2023-04-15T00:09:09;7.25;;;1.65;;
60488;SDS011;46331;49.252;8.904;2023-04-15T00:09:50;6.13;;;1.70;;
60488;SDS011;46331;49.252;8.904;2023-04-15T00:10:34;7.45;;;2.03;;
60488;SDS011;46331;49.252;8.904;2023-04-15T00:11:15;6.10;;;1.93;;
60488;SDS011;46331;49.252;8.904;2023-04-15T00:11:57;5.13;;;1.80;;
60488;SDS011;46331;49.252;8.904;2023-04-15T00:12:38;6.80;;;1.70;;
60488;SDS011;46331;49.252;8.904;2023-04-15T00:13:18;4.73;;;1.87;;
60488;SDS011;46331;49.252;8.904;2023-04-15T00:13:59;5.25;;;1.60;;
60488;SDS011;46331;49.252;8.904;2023-04-15T00:14:40;9.13;;;2.03;;
60488;SDS011;46331;49.252;8.904;2023-04-15T00:15:20;7.80;;;2.40;;
60488;SDS011;46331;49.252;8.904;2023-04-15T00:16:01;7.93;;;1.90;;
60488;SDS011;46331;49.252;8.904;2023-04-15T00:16:42;6.63;;;2.23;;
60488;SDS011;46331;49.252;8.904;2023-04-15T00:17:22;7.07;;;2.07;;
60488;SDS011;46331;49.252;8.904;2023-04-15T00:18:03;5.50;;;2.00;;
60488;SDS011;46331;49.252;8.904;2023-04-15T00:18:44;4.97;;;1.88;;
60488;SDS011;46331;49.252;8.904;2023-04-15T00:19:25;10.27;;;2.20;;
60488;SDS011;46331;49.252;8.904;2023-04-15T00:20:05;10.95;;;2.40;;
60488;SDS011;46331;49.252;8.904;2023-04-15T00:20:47;6.63;;;2.28;;
60488;SDS011;46331;49.252;8.904;2023-04-15T00:21:27;6.05;;;1.83;;
60488;SDS011;46331;49.252;8.904;2023-04-15T00:22:08;8.10;;;2.20;;
60488;SDS011;46331;49.252;8.904;2023-04-15T00:22:49;7.00;;;1.83;;
60488;SDS011;46331;49.252;8.904;2023-04-15T00:23:29;7.17;;;2.20;;
60488;SDS011;46331;49.252;8.904;2023-04-15T00:24:11;6.03;;;1.83;;
60488;SDS011;46331;49.252;8.904;2023-04-15T00:24:52;6.13;;;1.83;;
60488;SDS011;46331;49.252;8.904;2023-04-15T00:25:33;7.38;;;2.10;;
60488;SDS011;46331;49.252;8.904;2023-04-15T00:26:14;6.10;;;1.90;;
60488;SDS011;46331;49.252;8.904;2023-04-15T00:26:54;6.13;;;1.92;;
60488;SDS011;46331;49.252;8.904;2023-04-15T00:27:35;4.73;;;1.70;;
60488;SDS011;46331;49.252;8.904;2023-04-15T00:28:16;5.13;;;1.80;;
60488;SDS011;46331;49.252;8.904;2023-04-15T00:28:57;5.05;;;1.58;;
60488;SDS011;46331;49.252;8.904;2023-04-15T00:29:37;6.30;;;1.97;;
60488;SDS011;46331;49.252;8.904;2023-04-15T00:30:18;5.93;;;1.70;;
60488;SDS011;46331;49.252;8.904;2023-04-15T00:30:58;6.80;;;1.60;;
60488;SDS011;46331;49.252;8.904;2023-04-15T00:31:39;7.73;;;1.77;;
60488;SDS011;46331;49.252;8.904;2023-04-15T00:32:21;5.82;;;1.90;;
60488;SDS011;46331;49.252;8.904;2023-04-15T00:33:02;6.47;;;1.70;;
60488;SDS011;46331;49.252;8.904;2023-04-15T00:33:43;7.65;;;1.92;;
60488;SDS011;46331;49.252;8.904;2023-04-15T00:34:23;6.73;;;1.90;;
60488;SDS011;46331;49.252;8.904;2023-04-15T00:35:04;5.40;;;1.50;;
60488;SDS011;46331;49.252;8.904;2023-04-15T00:35:45;6.03;;;2.20;;
60488;SDS011;46331;49.252;8.904;2023-04-15T00:36:26;5.90;;;1.77;;
60488;SDS011;46331;49.252;8.904;2023-04-15T00:37:07;5.38;;;1.50;;
60488;SDS011;46331;49.252;8.904;2023-04-15T00:37:49;5.43;;;1.70;;
60488;SDS011;46331;49.252;8.904;2023-04-15T00:38:30;6.45;;;1.80;;
60488;SDS011;46331;49.252;8.904;2023-04-15T00:39:11;7.15;;;1.80;;
60488;SDS011;46331;49.252;8.904;2023-04-15T00:39:51;9.07;;;1.80;;
60488;SDS011;46331;49.252;8.904;2023-04-15T00:40:32;6.97;;;2.25;;
60488;SDS011;46331;49.252;8.904;2023-04-15T00:41:13;5.73;;;1.87;;
60488;SDS011;46331;49.252;8.904;2023-04-15T00:41:53;8.43;;;1.88;;
60488;SDS011;46331;49.252;8.904;2023-04-15T00:42:35;6.25;;;1.83;;
60488;SDS011;46331;49.252;8.904;2023-04-15T00:43:15;5.05;;;1.83;;
60488;SDS011;46331;49.252;8.904;2023-04-15T00:43:57;6.53;;;1.73;;
60488;SDS011;46331;49.252;8.904;2023-04-15T00:44:38;5.32;;;1.83;;
60488;SDS011;46331;49.252;8.904;2023-04-15T00:45:19;6.68;;;1.92;;
60488;SDS011;46331;49.252;8.904;2023-04-15T00:45:59;9.53;;;2.10;;
60488;SDS011;46331;49.252;8.904;2023-04-15T00:46:42;7.22;;;2.20;;
60488;SDS011;46331;49.252;8.904;2023-04-15T00:47:24;6.75;;;1.92;;
60488;SDS011;46331;49.252;8.904;2023-04-15T00:48:08;4.50;;;1.60;;
60488;SDS011;46331;49.252;8.904;2023-04-15T00:48:50;6.72;;;2.10;;
60488;SDS011;46331;49.252;8.904;2023-04-15T00:49:31;6.60;;;1.90;;
60488;SDS011;46331;49.252;8.904;2023-04-15T00:50:12;6.10;;;2.15;;
60488;SDS011;46331;49.252;8.904;2023-04-15T00:50:53;6.43;;;2.28;;
60488;SDS011;46331;49.252;8.904;2023-04-15T00:51:33;8.13;;;2.00;;
60488;SDS011;46331;49.252;8.904;2023-04-15T00:52:16;6.40;;;1.95;;
60488;SDS011;46331;49.252;8.904;2023-04-15T00:52:56;5.10;;;2.00;;
60488;SDS011;46331;49.252;8.904;2023-04-15T00:53:37;5.97;;;2.07;;
60488;SDS011;46331;49.252;8.904;2023-04-15T00:54:18;8.32;;;2.08;;
60488;SDS011;46331;49.252;8.904;2023-04-15T00:54:58;5.95;;;2.40;;
60488;SDS011;46331;49.252;8.904;2023-04-15T00:55:39;5.23;;;1.80;;
60488;SDS011;46331;49.252;8.904;2023-04-15T00:56:20;6.65;;;1.90;;
60488;SDS011;46331;49.252;8.904;2023-04-15T00:57:05;7.07;;;2.03;;
60488;SDS011;46331;49.252;8.904;2023-04-15T00:57:46;5.53;;;2.00;;
60488;SDS011;46331;49.252;8.904;2023-04-15T00:58:27;7.28;;;2.00;;
60488;SDS011;46331;49.252;8.904;2023-04-15T00:59:08;7.55;;;2.08;;
60488;SDS011;46331;49.252;8.904;2023-04-15T00:59:49;5.70;;;1.83;;
60488;SDS011;46331;49.252;8.904;2023-04-15T01:00:32;6.55;;;1.98;;
60488;SDS011;46331;49.252;8.904;2023-04-15T01:01:13;5.00;;;1.60;;
60488;SDS011;46331;49.252;8.904;2023-04-15T01:01:53;6.10;;;1.83;;
60488;SDS011;46331;49.252;8.904;2023-04-15T01:02:34;5.22;;;1.70;;
60488;SDS011;46331;49.252;8.904;2023-04-15T01:03:15;7.13;;;2.20;;
60488;SDS011;46331;49.252;8.904;2023-04-15T01:03:56;6.38;;;1.90;;
60488;SDS011;46331;49.252;8.904;2023-04-15T01:04:37;7.47;;;1.90;;
60488;SDS011;46331;49.252;8.904;2023-04-15T01:05:18;6.37;;;1.80;;
60488;SDS011;46331;49.252;8.904;2023-04-15T01:05:59;6.18;;;1.77;;
60488;SDS011;46331;49.252;8.904;2023-04-15T01:06:40;8.05;;;1.98;;
60488;SDS011;46331;49.252;8.904;2023-04-15T01:07:20;5.37;;;1.90;;
60488;SDS011;46331;49.252;8.904;2023-04-15T01:08:01;7.78;;;2.03;;
60488;SDS011;46331;49.252;8.904;2023-04-15T01:08:43;5.88;;;2.08;;
60488;SDS011;46331;49.252;8.904;2023-04-15T01:09:24;7.37;;;2.40;;
60488;SDS011;46331;49.252;8.904;2023-04-15T01:10:05;6.50;;;2.13;;
60488;SDS011;46331;49.252;8.904;2023-04-15T01:10:47;7.75;;;2.00;;
60488;SDS011;46331;49.252;8.904;2023-04-15T01:11:28;6.35;;;1.92;;
60488;SDS011;46331;49.252;8.904;2023-04-15T01:12:11;5.57;;;1.75;;
60488;SDS011;46331;49.252;8.904;2023-04-15T01:12:54;6.93;;;1.80;;
60488;SDS011;46331;49.252;8.904;2023-04-15T01:13:35;5.82;;;1.75;;
60488;SDS011;46331;49.252;8.904;2023-04-15T01:14:15;6.53;;;2.08;;
60488;SDS011;46331;49.252;8.904;2023-04-15T01:14:56;5.60;;;1.70;;
60488;SDS011;46331;49.252;8.904;2023-04-15T01:15:38;5.55;;;1.75;;
60488;SDS011;46331;49.252;8.904;2023-04-15T01:16:19;5.80;;;1.85;;
60488;SDS011;46331;49.252;8.904;2023-04-15T01:17:00;7.97;;;2.00;;
60488;SDS011;46331;49.252;8.904;2023-04-15T01:17:41;7.03;;;2.00;;
60488;SDS011;46331;49.252;8.904;2023-04-15T01:18:22;6.57;;;2.20;;
60488;SDS011;46331;49.252;8.904;2023-04-15T01:19:04;4.88;;;2.00;;
60488;SDS011;46331;49.252;8.904;2023-04-15T01:19:47;7.93;;;1.90;;
60488;SDS011;46331;49.252;8.904;2023-04-15T01:20:28;7.00;;;1.70;;
60488;SDS011;46331;49.252;8.904;2023-04-15T01:21:09;6.57;;;2.07;;
60488;SDS011;46331;49.252;8.904;2023-04-15T01:21:50;8.18;;;2.58;;
60488;SDS011;46331;49.252;8.904;2023-04-15T01:22:31;8.80;;;2.40;;
60488;SDS011;46331;49.252;8.904;2023-04-15T01:23:13;6.20;;;1.80;;
60488;SDS011;46331;49.252;8.904;2023-04-15T01:23:54;5.72;;;2.10;;
60488;SDS011;46331;49.252;8.904;2023-04-15T01:24:36;8.50;;;2.00;;
60488;SDS011;46331;49.252;8.904;2023-04-15T01:25:17;4.75;;;1.73;;
60488;SDS011;46331;49.252;8.904;2023-04-15T01:25:59;6.68;;;2.05;;
60488;SDS011;46331;49.252;8.904;2023-04-15T01:26:40;8.85;;;2.38;;
60488;SDS011;46331;49.252;8.904;2023-04-15T01:27:21;5.43;;;2.65;;
60488;SDS011;46331;49.252;8.904;2023-04-15T01:28:02;6.33;;;2.20;;
60488;SDS011;46331;49.252;8.904;2023-04-15T01:28:43;6.60;;;2.10;;
60488;SDS011;46331;49.252;8.904;2023-04-15T01:29:24;5.90;;;1.85;;
60488;SDS011;46331;49.252;8.904;2023-04-15T01:30:05;4.97;;;2.03;;
60488;SDS011;46331;49.252;8.904;2023-04-15T01:30:47;4.88;;;1.88;;
60488;SDS011;46331;49.252;8.904;2023-04-15T01:31:28;5.50;;;2.00;;
60488;SDS011;46331;49.252;8.904;2023-04-15T01:32:08;8.63;;;2.03;;
60488;SDS011;46331;49.252;8.904;2023-04-15T01:33:08;6.80;;;2.00;;
60488;SDS011;46331;49.252;8.904;2023-04-15T01:34:07;7.47;;;2.05;;
60488;SDS011;46331;49.252;8.904;2023-04-15T01:35:06;4.72;;;1.60;;
60488;SDS011;46331;49.252;8.904;2023-04-15T01:36:01;6.30;;;2.25;;
60488;SDS011;46331;49.252;8.904;2023-04-15T01:36:42;7.90;;;2.10;;
60488;SDS011;46331;49.252;8.904;2023-04-15T01:37:23;6.53;;;1.90;;
60488;SDS011;46331;49.252;8.904;2023-04-15T01:38:06;6.53;;;1.77;;
60488;SDS011;46331;49.252;8.904;2023-04-15T01:38:48;5.13;;;1.67;;
60488;SDS011;46331;49.252;8.904;2023-04-15T01:39:30;6.40;;;2.08;;
60488;SDS011;46331;49.252;8.904;2023-04-15T01:40:10;5.80;;;1.90;;
60488;SDS011;46331;49.252;8.904;2023-04-15T01:40:52;7.28;;;2.22;;
60488;SDS011;46331;49.252;8.904;2023-04-15T01:41:34;8.52;;;2.00;;
60488;SDS011;46331;49.252;8.904;2023-04-15T01:42:16;5.95;;;2.30;;
60488;SDS011;46331;49.252;8.904;2023-04-15T01:42:58;7.38;;;2.10;;
60488;SDS011;46331;49.252;8.904;2023-04-15T01:43:40;8.65;;;2.42;;
60488;SDS011;46331;49.252;8.904;2023-04-15T01:44:23;6.43;;;2.38;;
60488;SDS011;46331;49.252;8.904;2023-04-15T01:45:05;6.38;;;2.10;;
60488;SDS011;46331;49.252;8.904;2023-04-15T01:45:48;6.97;;;2.15;;
60488;SDS011;46331;49.252;8.904;2023-04-15T01:46:30;7.07;;;2.25;;
60488;SDS011;46331;49.252;8.904;2023-04-15T01:47:12;8.27;;;2.30;;
60488;SDS011;46331;49.252;8.904;2023-04-15T01:47:56;6.97;;;2.08;;
60488;SDS011;46331;49.252;8.904;2023-04-15T01:48:40;6.53;;;2.17;;
60488;SDS011;46331;49.252;8.904;2023-04-15T01:49:22;8.15;;;1.98;;
60488;SDS011;46331;49.252;8.904;2023-04-15T01:50:04;7.05;;;2.42;;
60488;SDS011;46331;49.252;8.904;2023-04-15T01:50:47;5.45;;;2.05;;
60488;SDS011;46331;49.252;8.904;2023-04-15T01:51:29;5.93;;;2.22;;
60488;SDS011;46331;49.252;8.904;2023-04-15T01:52:11;6.90;;;2.35;;
60488;SDS011;46331;49.252;8.904;2023-04-15T01:52:54;6.25;;;2.03;;
60488;SDS011;46331;49.252;8.904;2023-04-15T01:53:36;6.25;;;2.00;;
60488;SDS011;46331;49.252;8.904;2023-04-15T01:54:18;7.03;;;2.00;;
60488;SDS011;46331;49.252;8.904;2023-04-15T01:55:00;6.78;;;2.28;;
60488;SDS011;46331;49.252;8.904;2023-04-15T01:55:42;5.28;;;1.80;;
60488;SDS011;46331;49.252;8.904;2023-04-15T01:56:24;5.15;;;1.80;;
60488;SDS011;46331;49.252;8.904;2023-04-15T01:57:06;4.97;;;1.90;;
60488;SDS011;46331;49.252;8.904;2023-04-15T01:57:47;6.50;;;1.90;;
60488;SDS011;46331;49.252;8.904;2023-04-15T01:58:29;5.07;;;2.00;;
60488;SDS011;46331;49.252;8.904;2023-04-15T01:59:11;6.45;;;1.75;;
60488;SDS011;46331;49.252;8.904;2023-04-15T01:59:53;5.50;;;2.00;;
60488;SDS011;46331;49.252;8.904;2023-04-15T02:00:36;7.43;;;2.10;;
60488;SDS011;46331;49.252;8.904;2023-04-15T02:01:18;6.77;;;1.97;;
60488;SDS011;46331;49.252;8.904;2023-04-15T02:02:00;7.15;;;1.98;;
60488;SDS011;46331;49.252;8.904;2023-04-15T02:02:42;5.38;;;2.03;;
60488;SDS011;46331;49.252;8.904;2023-04-15T02:03:24;5.28;;;1.80;;
60488;SDS011;46331;49.252;8.904;2023-04-15T02:04:07;8.18;;;1.90;;
60488;SDS011;46331;49.252;8.904;2023-04-15T02:04:56;7.10;;;2.15;;
60488;SDS011;46331;49.252;8.904;2023-04-15T02:05:38;4.28;;;1.60;;
60488;SDS011;46331;49.252;8.904;2023-04-15T02:06:20;6.47;;;2.13;;
60488;SDS011;46331;49.252;8.904;2023-04-15T02:07:02;8.57;;;1.95;;
60488;SDS011;46331;49.252;8.904;2023-04-15T02:07:44;6.47;;;1.70;;
60488;SDS011;46331;49.252;8.904;2023-04-15T02:08:26;6.37;;;2.30;;
60488;SDS011;46331;49.252;8.904;2023-04-15T02:09:09;5.43;;;2.03;;
60488;SDS011;46331;49.252;8.904;2023-04-15T02:09:51;9.40;;;3.05;;
60488;SDS011;46331;49.252;8.904;2023-04-15T02:10:33;9.23;;;2.67;;
60488;SDS011;46331;49.252;8.904;2023-04-15T02:11:15;7.47;;;2.42;;
60488;SDS011;46331;49.252;8.904;2023-04-15T02:11:57;9.70;;;2.67;;
60488;SDS011;46331;49.252;8.904;2023-04-15T02:12:39;8.32;;;3.03;;
60488;SDS011;46331;49.252;8.904;2023-04-15T02:13:21;9.48;;;2.65;;
60488;SDS011;46331;49.252;8.904;2023-04-15T02:14:04;7.68;;;2.50;;
60488;SDS011;46331;49.252;8.904;2023-04-15T02:14:46;7.30;;;2.45;;
60488;SDS011;46331;49.252;8.904;2023-04-15T02:15:28;8.37;;;3.27;;
60488;SDS011;46331;49.252;8.904;2023-04-15T02:16:14;10.98;;;2.78;;
60488;SDS011;46331;49.252;8.904;2023-04-15T02:16:58;8.98;;;2.58;;
60488;SDS011;46331;49.252;8.904;2023-04-15T02:17:47;7.63;;;2.40;;
60488;SDS011;46331;49.252;8.904;2023-04-15T02:18:31;5.97;;;2.20;;
60488;SDS011;46331;49.252;8.904;2023-04-15T02:19:13;6.28;;;2.40;;
60488;SDS011;46331;49.252;8.904;2023-04-15T02:19:55;8.57;;;2.42;;
60488;SDS011;46331;49.252;8.904;2023-04-15T02:20:37;7.63;;;2.95;;
60488;SDS011;46331;49.252;8.904;2023-04-15T02:21:20;6.13;;;2.35;;
60488;SDS011;46331;49.252;8.904;2023-04-15T02:22:01;6.85;;;2.25;;
60488;SDS011;46331;49.252;8.904;2023-04-15T02:22:43;5.40;;;2.00;;
60488;SDS011;46331;49.252;8.904;2023-04-15T02:23:25;5.38;;;2.08;;
60488;SDS011;46331;49.252;8.904;2023-04-15T02:24:07;6.90;;;2.20;;
60488;SDS011;46331;49.252;8.904;2023-04-15T02:24:49;5.82;;;1.92;;
60488;SDS011;46331;49.252;8.904;2023-04-15T02:25:31;6.90;;;2.38;;
60488;SDS011;46331;49.252;8.904;2023-04-15T02:26:12;5.63;;;2.10;;
60488;SDS011;46331;49.252;8.904;2023-04-15T02:26:54;5.03;;;1.83;;
60488;SDS011;46331;49.252;8.904;2023-04-15T02:27:37;5.05;;;1.85;;
60488;SDS011;46331;49.252;8.904;2023-04-15T02:28:18;5.78;;;2.17;;
60488;SDS011;46331;49.252;8.904;2023-04-15T02:29:00;6.00;;;2.00;;
60488;SDS011;46331;49.252;8.904;2023-04-15T02:29:42;4.77;;;1.80;;
60488;SDS011;46331;49.252;8.904;2023-04-15T02:30:25;7.63;;;1.80;;
60488;SDS011;46331;49.252;8.904;2023-04-15T02:31:07;5.75;;;2.28;;
60488;SDS011;46331;49.252;8.904;2023-04-15T02:31:50;5.50;;;1.90;;
60488;SDS011;46331;49.252;8.904;2023-04-15T02:32:32;7.43;;;2.20;;
60488;SDS011;46331;49.252;8.904;2023-04-15T02:33:13;7.50;;;2.20;;
60488;SDS011;46331;49.252;8.904;2023-04-15T02:33:55;8.57;;;2.55;;
60488;SDS011;46331;49.252;8.904;2023-04-15T02:34:38;6.35;;;2.20;;
60488;SDS011;46331;49.252;8.904;2023-04-15T02:35:24;6.03;;;2.35;;
60488;SDS011;46331;49.252;8.904;2023-04-15T02:36:06;5.57;;;2.30;;
60488;SDS011;46331;49.252;8.904;2023-04-15T02:36:48;8.67;;;2.70;;
60488;SDS011;46331;49.252;8.904;2023-04-15T02:37:35;7.45;;;2.35;;
60488;SDS011;46331;49.252;8.904;2023-04-15T02:38:24;5.70;;;2.20;;
60488;SDS011;46331;49.252;8.904;2023-04-15T02:39:06;6.63;;;2.20;;
60488;SDS011;46331;49.252;8.904;2023-04-15T02:39:48;9.25;;;2.88;;
60488;SDS011;46331;49.252;8.904;2023-04-15T02:40:31;7.78;;;3.50;;
60488;SDS011;46331;49.252;8.904;2023-04-15T02:41:12;8.02;;;2.88;;
60488;SDS011;46331;49.252;8.904;2023-04-15T02:41:55;9.60;;;3.10;;
60488;SDS011;46331;49.252;8.904;2023-04-15T02:42:40;8.15;;;2.80;;
60488;SDS011;46331;49.252;8.904;2023-04-15T02:43:26;7.47;;;2.92;;
60488;SDS011;46331;49.252;8.904;2023-04-15T02:44:08;10.23;;;3.00;;
60488;SDS011;46331;49.252;8.904;2023-04-15T02:44:50;10.68;;;2.70;;
60488;SDS011;46331;49.252;8.904;2023-04-15T02:45:32;9.23;;;2.70;;
60488;SDS011;46331;49.252;8.904;2023-04-15T02:46:17;6.15;;;2.67;;
60488;SDS011;46331;49.252;8.904;2023-04-15T02:46:59;10.10;;;2.47;;
60488;SDS011;46331;49.252;8.904;2023-04-15T02:47:40;6.57;;;2.60;;
60488;SDS011;46331;49.252;8.904;2023-04-15T02:48:24;6.55;;;2.45;;
60488;SDS011;46331;49.252;8.904;2023-04-15T02:49:06;7.45;;;2.80;;
60488;SDS011;46331;49.252;8.904;2023-04-15T02:49:51;8.10;;;2.60;;
60488;SDS011;46331;49.252;8.904;2023-04-15T02:50:33;8.07;;;2.40;;
60488;SDS011;46331;49.252;8.904;2023-04-15T02:51:18;5.90;;;2.57;;
60488;SDS011;46331;49.252;8.904;2023-04-15T02:52:02;6.20;;;2.20;;
60488;SDS011;46331;49.252;8.904;2023-04-15T02:52:44;7.30;;;2.80;;
60488;SDS011;46331;49.252;8.904;2023-04-15T02:53:26;5.97;;;2.40;;
60488;SDS011;46331;49.252;8.904;2023-04-15T02:54:08;5.88;;;2.35;;
60488;SDS011;46331;49.252;8.904;2023-04-15T02:54:50;5.70;;;2.28;;
60488;SDS011;46331;49.252;8.904;2023-04-15T02:55:32;9.73;;;2.97;;
60488;SDS011;46331;49.252;8.904;2023-04-15T02:56:14;7.72;;;2.50;;
60488;SDS011;46331;49.252;8.904;2023-04-15T02:56:57;5.55;;;2.03;;
60488;SDS011;46331;49.252;8.904;2023-04-15T02:57:39;6.60;;;2.70;;
60488;SDS011;46331;49.252;8.904;2023-04-15T02:58:23;8.47;;;2.53;;
60488;SDS011;46331;49.252;8.904;2023-04-15T02:59:05;7.63;;;2.47;;
60488;SDS011;46331;49.252;8.904;2023-04-15T02:59:47;7.18;;;2.35;;
60488;SDS011;46331;49.252;8.904;2023-04-15T03:00:29;7.57;;;2.35;;
60488;SDS011;46331;49.252;8.904;2023-04-15T03:01:11;6.13;;;2.45;;
60488;SDS011;46331;49.252;8.904;2023-04-15T03:01:53;7.45;;;2.10;;
60488;SDS011;46331;49.252;8.904;2023-04-15T03:02:41;5.95;;;2.13;;
60488;SDS011;46331;49.252;8.904;2023-04-15T03:03:23;9.40;;;2.90;;
60488;SDS011;46331;49.252;8.904;2023-04-15T03:04:05;7.57;;;2.80;;
60488;SDS011;46331;49.252;8.904;2023-04-15T03:04:49;6.45;;;2.47;;
60488;SDS011;46331;49.252;8.904;2023-04-15T03:05:31;7.20;;;3.23;;
60488;SDS011;46331;49.252;8.904;2023-04-15T03:06:13;6.28;;;2.92;;
60488;SDS011;46331;49.252;8.904;2023-04-15T03:06:56;10.15;;;3.58;;
60488;SDS011;46331;49.252;8.904;2023-04-15T03:07:38;8.90;;;3.20;;
60488;SDS011;46331;49.252;8.904;2023-04-15T03:08:23;8.27;;;3.10;;
60488;SDS011;46331;49.252;8.904;2023-04-15T03:09:04;6.57;;;2.55;;
60488;SDS011;46331;49.252;8.904;2023-04-15T03:09:49;6.40;;;2.67;;
60488;SDS011;46331;49.252;8.904;2023-04-15T03:10:31;7.15;;;2.90;;
60488;SDS011;46331;49.252;8.904;2023-04-15T03:11:14;9.60;;;2.85;;
60488;SDS011;46331;49.252;8.904;2023-04-15T03:11:56;6.97;;;2.35;;
60488;SDS011;46331;49.252;8.904;2023-04-15T03:12:38;6.13;;;2.70;;
60488;SDS011;46331;49.252;8.904;2023-04-15T03:13:21;5.38;;;1.90;;
60488;SDS011;46331;49.252;8.904;2023-04-15T03:14:03;7.60;;;2.47;;
60488;SDS011;46331;49.252;8.904;2023-04-15T03:14:49;7.18;;;2.92;;
60488;SDS011;46331;49.252;8.904;2023-04-15T03:15:31;8.07;;;2.40;;
60488;SDS011;46331;49.252;8.904;2023-04-15T03:16:13;8.27;;;2.40;;
60488;SDS011;46331;49.252;8.904;2023-04-15T03:16:56;6.55;;;2.67;;
60488;SDS011;46331;49.252;8.904;2023-04-15T03:17:39;7.35;;;2.70;;
60488;SDS011;46331;49.252;8.904;2023-04-15T03:18:22;7.60;;;2.80;;
60488;SDS011;46331;49.252;8.904;2023-04-15T03:19:04;7.75;;;2.55;;
60488;SDS011;46331;49.252;8.904;2023-04-15T03:19:47;8.10;;;3.23;;
60488;SDS011;46331;49.252;8.904;2023-04-15T03:20:30;9.82;;;3.08;;
60488;SDS011;46331;49.252;8.904;2023-04-15T03:21:12;11.88;;;3.47;;
60488;SDS011;46331;49.252;8.904;2023-04-15T03:21:55;9.43;;;3.20;;
60488;SDS011;46331;49.252;8.904;2023-04-15T03:22:36;9.30;;;3.33;;
60488;SDS011;46331;49.252;8.904;2023-04-15T03:23:18;8.80;;;3.70;;
60488;SDS011;46331;49.252;8.904;2023-04-15T03:24:01;11.32;;;3.08;;
60488;SDS011;46331;49.252;8.904;2023-04-15T03:24:43;12.18;;;3.63;;
60488;SDS011;46331;49.252;8.904;2023-04-15T03:25:25;10.65;;;3.10;;
60488;SDS011;46331;49.252;8.904;2023-04-15T03:26:07;8.00;;;2.83;;
60488;SDS011;46331;49.252;8.904;2023-04-15T03:26:49;11.00;;;3.60;;
60488;SDS011;46331;49.252;8.904;2023-04-15T03:27:32;8.25;;;2.90;;
60488;SDS011;46331;49.252;8.904;2023-04-15T03:28:15;8.70;;;2.88;;
60488;SDS011;46331;49.252;8.904;2023-04-15T03:28:57;8.23;;;2.83;;
60488;SDS011;46331;49.252;8.904;2023-04-15T03:29:39;8.65;;;2.75;;
60488;SDS011;46331;49.252;8.904;2023-04-15T03:30:22;6.43;;;2.33;;
60488;SDS011;46331;49.252;8.904;2023-04-15T03:31:03;7.00;;;2.60;;
60488;SDS011;46331;49.252;8.904;2023-04-15T03:31:45;6.78;;;2.45;;
60488;SDS011;46331;49.252;8.904;2023-04-15T03:32:27;7.55;;;2.45;;
60488;SDS011;46331;49.252;8.904;2023-04-15T03:33:09;10.32;;;2.95;;
60488;SDS011;46331;49.252;8.904;2023-04-15T03:33:51;12.67;;;2.90;;
60488;SDS011;46331;49.252;8.904;2023-04-15T03:34:33;9.18;;;2.75;;
60488;SDS011;46331;49.252;8.904;2023-04-15T03:35:15;6.28;;;2.58;;
60488;SDS011;46331;49.252;8.904;2023-04-15T03:35:57;7.82;;;2.58;;
60488;SDS011;46331;49.252;8.904;2023-04-15T03:36:39;7.90;;;2.53;;
60488;SDS011;46331;49.252;8.904;2023-04-15T03:37:21;6.57;;;2.58;;
60488;SDS011;46331;49.252;8.904;2023-04-15T03:38:02;6.68;;;2.28;;
60488;SDS011;46331;49.252;8.904;2023-04-15T03:38:44;9.40;;;2.65;;
60488;SDS011;46331;49.252;8.904;2023-04-15T03:39:26;6.45;;;2.50;;
60488;SDS011;46331;49.252;8.904;2023-04-15T03:40:08;8.93;;;2.55;;
60488;SDS011;46331;49.252;8.904;2023-04-15T03:40:50;9.00;;;2.70;;
60488;SDS011;46331;49.252;8.904;2023-04-15T03:41:32;7.97;;;2.95;;
60488;SDS011;46331;49.252;8.904;2023-04-15T03:42:13;8.23;;;2.65;;
60488;SDS011;46331;49.252;8.904;2023-04-15T03:42:56;7.82;;;2.33;;
60488;SDS011;46331;49.252;8.904;2023-04-15T03:43:37;6.82;;;2.28;;
60488;SDS011;46331;49.252;8.904;2023-04-15T03:44:19;5.88;;;2.00;;
60488;SDS011;46331;49.252;8.904;2023-04-15T03:45:01;7.82;;;2.22;;
60488;SDS011;46331;49.252;8.904;2023-04-15T03:45:43;6.05;;;2.88;;
60488;SDS011;46331;49.252;8.904;2023-04-15T03:46:25;6.40;;;2.78;;
60488;SDS011;46331;49.252;8.904;2023-04-15T03:47:07;8.38;;;2.78;;
60488;SDS011;46331;49.252;8.904;2023-04-15T03:47:49;9.50;;;3.27;;
60488;SDS011;46331;49.252;8.904;2023-04-15T03:48:30;6.38;;;2.85;;
60488;SDS011;46331;49.252;8.904;2023-04-15T03:49:12;8.43;;;3.17;;
60488;SDS011;46331;49.252;8.904;2023-04-15T03:49:54;8.07;;;3.50;;
60488;SDS011;46331;49.252;8.904;2023-04-15T03:50:36;7.60;;;3.33;;
60488;SDS011;46331;49.252;8.904;2023-04-15T03:51:18;8.02;;;3.25;;
60488;SDS011;46331;49.252;8.904;2023-04-15T03:51:59;10.02;;;3.50;;
60488;SDS011;46331;49.252;8.904;2023-04-15T03:52:41;7.80;;;3.55;;
60488;SDS011;46331;49.252;8.904;2023-04-15T03:53:23;7.88;;;3.25;;
60488;SDS011;46331;49.252;8.904;2023-04-15T03:54:05;6.75;;;2.85;;
60488;SDS011;46331;49.252;8.904;2023-04-15T03:54:47;7.40;;;3.03;;
60488;SDS011;46331;49.252;8.904;2023-04-15T03:55:28;6.20;;;2.85;;
60488;SDS011;46331;49.252;8.904;2023-04-15T03:56:10;10.50;;;2.85;;
60488;SDS011;46331;49.252;8.904;2023-04-15T03:56:52;8.65;;;2.80;;
60488;SDS011;46331;49.252;8.904;2023-04-15T03:57:34;7.10;;;2.80;;
60488;SDS011;46331;49.252;8.904;2023-04-15T03:58:19;7.90;;;2.70;;
60488;SDS011;46331;49.252;8.904;2023-04-15T03:59:01;6.22;;;2.80;;
60488;SDS011;46331;49.252;8.904;2023-04-15T03:59:42;9.82;;;3.35;;
60488;SDS011;46331;49.252;8.904;2023-04-15T04:00:24;7.93;;;2.90;;
60488;SDS011;46331;49.252;8.904;2023-04-15T04:01:06;12.80;;;3.00;;
60488;SDS011;46331;49.252;8.904;2023-04-15T04:01:48;11.67;;;3.00;;
60488;SDS011;46331;49.252;8.904;2023-04-15T04:02:30;7.57;;;2.90;;
60488;SDS011;46331;49.252;8.904;2023-04-15T04:03:12;7.97;;;3.22;;
60488;SDS011;46331;49.252;8.904;2023-04-15T04:03:54;7.53;;;3.25;;
60488;SDS011;46331;49.252;8.904;2023-04-15T04:04:35;7.97;;;3.10;;
60488;SDS011;46331;49.252;8.904;2023-04-15T04:05:17;8.93;;;3.53;;
60488;SDS011;46331;49.252;8.904;2023-04-15T04:05:59;9.30;;;3.90;;
60488;SDS011;46331;49.252;8.904;2023-04-15T04:06:41;9.00;;;3.50;;
60488;SDS011;46331;49.252;8.904;2023-04-15T04:07:22;8.77;;;3.30;;
60488;SDS011;46331;49.252;8.904;2023-04-15T04:08:05;7.80;;;3.20;;
60488;SDS011;46331;49.252;8.904;2023-04-15T04:08:46;9.63;;;2.80;;
60488;SDS011;46331;49.252;8.904;2023-04-15T04:09:28;9.40;;;2.90;;
60488;SDS011;46331;49.252;8.904;2023-04-15T04:10:10;7.55;;;3.20;;
60488;SDS011;46331;49.252;8.904;2023-04-15T04:10:52;9.27;;;3.85;;
60488;SDS011;46331;49.252;8.904;2023-04-15T04:11:34;11.15;;;4.03;;
60488;SDS011;46331;49.252;8.904;2023-04-15T04:12:16;12.07;;;5.38;;
60488;SDS011;46331;49.252;8.904;2023-04-15T04:12:57;9.63;;;4.22;;
60488;SDS011;46331;49.252;8.904;2023-04-15T04:13:39;9.48;;;4.10;;